sensor_id;sensor_type;location;lat;lon;timestamp;P1;durP1;ratioP1;P2;durP2;ratioP2
3916;SDS011;1973;50.518;7.318;2024-01-06T00:00:28;5.10;;;3.27;;
3916;SDS011;1973;50.518;7.318;2024-01-06T00:02:55;6.07;;;3.07;;
3916;SDS011;1973;50.518;7.318;2024-01-06T00:05:22;4.17;;;2.70;;
3916;SDS011;1973;50.518;7.318;2024-01-06T00:07:48;3.37;;;2.30;;
3916;SDS011;1973;50.518;7.318;2024-01-06T00:10:15;3.97;;;3.03;;
3916;SDS011;1973;50.518;7.318;2024-01-06T00:12:43;6.97;;;2.50;;
3916;SDS011;1973;50.518;7.318;2024-01-06T00:15:10;7.10;;;3.27;;
3916;SDS011;1973;50.518;7.318;2024-01-06T00:17:39;3.73;;;2.03;;
3916;SDS011;1973;50.518;7.318;2024-01-06T00:20:06;6.60;;;2.67;;
3916;SDS011;1973;50.518;7.318;2024-01-06T00:22:33;6.33;;;2.60;;
3916;SDS011;1973;50.518;7.318;2024-01-06T00:25:00;4.17;;;2.40;;
3916;SDS011;1973;50.518;7.318;2024-01-06T00:27:27;4.47;;;2.73;;
3916;SDS011;1973;50.518;7.318;2024-01-06T00:29:54;8.30;;;2.50;;
3916;SDS011;1973;50.518;7.318;2024-01-06T00:32:20;5.03;;;2.10;;
3916;SDS011;1973;50.518;7.318;2024-01-06T00:34:47;7.13;;;2.10;;
3916;SDS011;1973;50.518;7.318;2024-01-06T00:37:14;3.83;;;2.10;;
3916;SDS011;1973;50.518;7.318;2024-01-06T00:39:40;5.00;;;2.03;;
3916;SDS011;1973;50.518;7.318;2024-01-06T00:42:07;5.57;;;2.03;;
3916;SDS011;1973;50.518;7.318;2024-01-06T00:44:35;4.00;;;2.00;;
3916;SDS011;1973;50.518;7.318;2024-01-06T00:47:02;9.30;;;2.23;;
3916;SDS011;1973;50.518;7.318;2024-01-06T00:49:29;3.33;;;1.70;;
3916;SDS011;1973;50.518;7.318;2024-01-06T00:51:55;3.50;;;2.13;;
3916;SDS011;1973;50.518;7.318;2024-01-06T00:54:22;2.03;;;1.43;;
3916;SDS011;1973;50.518;7.318;2024-01-06T00:56:49;2.90;;;1.70;;
3916;SDS011;1973;50.518;7.318;2024-01-06T00:59:15;3.00;;;1.60;;
3916;SDS011;1973;50.518;7.318;2024-01-06T01:01:42;3.40;;;1.93;;
3916;SDS011;1973;50.518;7.318;2024-01-06T01:04:08;3.77;;;1.90;;
3916;SDS011;1973;50.518;7.318;2024-01-06T01:06:36;3.70;;;1.87;;
3916;SDS011;1973;50.518;7.318;2024-01-06T01:09:03;5.67;;;2.33;;
3916;SDS011;1973;50.518;7.318;2024-01-06T01:11:30;6.53;;;2.20;;
3916;SDS011;1973;50.518;7.318;2024-01-06T01:13:57;5.70;;;2.20;;
3916;SDS011;1973;50.518;7.318;2024-01-06T01:16:23;2.60;;;1.67;;
3916;SDS011;1973;50.518;7.318;2024-01-06T01:18:50;6.23;;;1.60;;
3916;SDS011;1973;50.518;7.318;2024-01-06T01:21:17;3.93;;;1.80;;
3916;SDS011;1973;50.518;7.318;2024-01-06T01:23:44;4.70;;;1.90;;
3916;SDS011;1973;50.518;7.318;2024-01-06T01:26:10;3.60;;;2.00;;
3916;SDS011;1973;50.518;7.318;2024-01-06T01:28:37;2.70;;;1.80;;
3916;SDS011;1973;50.518;7.318;2024-01-06T01:31:03;5.10;;;1.57;;
3916;SDS011;1973;50.518;7.318;2024-01-06T01:33:31;3.20;;;1.53;;
3916;SDS011;1973;50.518;7.318;2024-01-06T01:35:57;2.77;;;1.73;;
3916;SDS011;1973;50.518;7.318;2024-01-06T01:38:28;5.83;;;1.80;;
3916;SDS011;1973;50.518;7.318;2024-01-06T01:40:54;2.13;;;1.70;;
3916;SDS011;1973;50.518;7.318;2024-01-06T01:43:21;2.90;;;1.90;;
3916;SDS011;1973;50.518;7.318;2024-01-06T01:45:53;2.70;;;1.60;;
3916;SDS011;1973;50.518;7.318;2024-01-06T01:48:20;2.67;;;2.10;;
3916;SDS011;1973;50.518;7.318;2024-01-06T01:50:47;8.43;;;1.70;;
3916;SDS011;1973;50.518;7.318;2024-01-06T01:53:14;5.10;;;2.20;;
3916;SDS011;1973;50.518;7.318;2024-01-06T01:55:41;2.73;;;1.87;;
3916;SDS011;1973;50.518;7.318;2024-01-06T01:58:08;3.30;;;1.70;;
3916;SDS011;1973;50.518;7.318;2024-01-06T02:00:36;3.30;;;2.00;;
3916;SDS011;1973;50.518;7.318;2024-01-06T02:03:04;2.43;;;1.83;;
3916;SDS011;1973;50.518;7.318;2024-01-06T02:05:32;4.17;;;1.43;;
3916;SDS011;1973;50.518;7.318;2024-01-06T02:07:58;3.30;;;1.80;;
3916;SDS011;1973;50.518;7.318;2024-01-06T02:10:25;3.47;;;1.73;;
3916;SDS011;1973;50.518;7.318;2024-01-06T02:12:52;3.87;;;1.53;;
3916;SDS011;1973;50.518;7.318;2024-01-06T02:15:19;7.47;;;2.20;;
3916;SDS011;1973;50.518;7.318;2024-01-06T02:17:45;3.80;;;2.07;;
3916;SDS011;1973;50.518;7.318;2024-01-06T02:20:12;3.83;;;3.13;;
3916;SDS011;1973;50.518;7.318;2024-01-06T02:22:40;8.93;;;2.10;;
3916;SDS011;1973;50.518;7.318;2024-01-06T02:25:07;2.80;;;1.83;;
3916;SDS011;1973;50.518;7.318;2024-01-06T02:27:38;3.30;;;1.77;;
3916;SDS011;1973;50.518;7.318;2024-01-06T02:30:06;4.73;;;1.70;;
3916;SDS011;1973;50.518;7.318;2024-01-06T02:32:33;2.73;;;2.23;;
3916;SDS011;1973;50.518;7.318;2024-01-06T02:35:00;5.77;;;1.63;;
3916;SDS011;1973;50.518;7.318;2024-01-06T02:37:27;2.77;;;1.63;;
3916;SDS011;1973;50.518;7.318;2024-01-06T02:39:53;4.30;;;1.53;;
3916;SDS011;1973;50.518;7.318;2024-01-06T02:42:20;2.93;;;1.43;;
3916;SDS011;1973;50.518;7.318;2024-01-06T02:44:47;2.53;;;1.37;;
3916;SDS011;1973;50.518;7.318;2024-01-06T02:47:13;2.80;;;1.73;;
3916;SDS011;1973;50.518;7.318;2024-01-06T02:49:40;2.50;;;1.27;;
3916;SDS011;1973;50.518;7.318;2024-01-06T02:52:06;3.03;;;1.30;;
3916;SDS011;1973;50.518;7.318;2024-01-06T02:54:33;3.80;;;1.80;;
3916;SDS011;1973;50.518;7.318;2024-01-06T02:57:00;4.40;;;1.50;;
3916;SDS011;1973;50.518;7.318;2024-01-06T02:59:26;1.90;;;1.10;;
3916;SDS011;1973;50.518;7.318;2024-01-06T03:01:53;4.03;;;1.50;;
3916;SDS011;1973;50.518;7.318;2024-01-06T03:04:19;1.80;;;1.30;;
3916;SDS011;1973;50.518;7.318;2024-01-06T03:06:46;4.03;;;1.60;;
3916;SDS011;1973;50.518;7.318;2024-01-06T03:09:18;3.60;;;1.60;;
3916;SDS011;1973;50.518;7.318;2024-01-06T03:11:45;3.40;;;1.43;;
3916;SDS011;1973;50.518;7.318;2024-01-06T03:14:12;6.07;;;1.70;;
3916;SDS011;1973;50.518;7.318;2024-01-06T03:16:38;2.57;;;1.47;;
3916;SDS011;1973;50.518;7.318;2024-01-06T03:19:05;3.13;;;1.40;;
3916;SDS011;1973;50.518;7.318;2024-01-06T03:21:32;3.63;;;1.57;;
3916;SDS011;1973;50.518;7.318;2024-01-06T03:23:59;2.03;;;1.23;;
3916;SDS011;1973;50.518;7.318;2024-01-06T03:26:26;1.60;;;1.10;;
3916;SDS011;1973;50.518;7.318;2024-01-06T03:28:54;2.27;;;1.30;;
3916;SDS011;1973;50.518;7.318;2024-01-06T03:31:21;6.03;;;1.30;;
3916;SDS011;1973;50.518;7.318;2024-01-06T03:33:48;2.23;;;1.30;;
3916;SDS011;1973;50.518;7.318;2024-01-06T03:36:15;3.03;;;1.00;;
3916;SDS011;1973;50.518;7.318;2024-01-06T03:38:43;2.70;;;1.30;;
3916;SDS011;1973;50.518;7.318;2024-01-06T03:41:09;2.07;;;1.10;;
3916;SDS011;1973;50.518;7.318;2024-01-06T03:43:36;2.80;;;1.30;;
3916;SDS011;1973;50.518;7.318;2024-01-06T03:46:03;1.80;;;1.57;;
3916;SDS011;1973;50.518;7.318;2024-01-06T03:48:29;1.93;;;1.10;;
3916;SDS011;1973;50.518;7.318;2024-01-06T03:50:56;4.20;;;1.90;;
3916;SDS011;1973;50.518;7.318;2024-01-06T03:53:23;3.10;;;1.30;;
3916;SDS011;1973;50.518;7.318;2024-01-06T03:55:52;4.60;;;1.20;;
3916;SDS011;1973;50.518;7.318;2024-01-06T03:58:19;2.23;;;1.00;;
3916;SDS011;1973;50.518;7.318;2024-01-06T04:00:45;1.67;;;1.20;;
3916;SDS011;1973;50.518;7.318;2024-01-06T04:03:12;2.33;;;0.80;;
3916;SDS011;1973;50.518;7.318;2024-01-06T04:05:38;2.80;;;1.20;;
3916;SDS011;1973;50.518;7.318;2024-01-06T04:08:05;2.13;;;1.20;;
3916;SDS011;1973;50.518;7.318;2024-01-06T04:10:32;2.00;;;1.40;;
3916;SDS011;1973;50.518;7.318;2024-01-06T04:12:58;5.43;;;1.50;;
3916;SDS011;1973;50.518;7.318;2024-01-06T04:15:25;4.90;;;1.60;;
3916;SDS011;1973;50.518;7.318;2024-01-06T04:17:51;2.40;;;1.50;;
3916;SDS011;1973;50.518;7.318;2024-01-06T04:20:19;3.27;;;1.60;;
3916;SDS011;1973;50.518;7.318;2024-01-06T04:22:45;1.50;;;1.03;;
3916;SDS011;1973;50.518;7.318;2024-01-06T04:25:12;2.47;;;1.47;;
3916;SDS011;1973;50.518;7.318;2024-01-06T04:27:38;2.20;;;1.40;;
3916;SDS011;1973;50.518;7.318;2024-01-06T04:30:05;2.07;;;1.43;;
3916;SDS011;1973;50.518;7.318;2024-01-06T04:32:32;1.33;;;1.13;;
3916;SDS011;1973;50.518;7.318;2024-01-06T04:34:59;1.73;;;1.20;;
3916;SDS011;1973;50.518;7.318;2024-01-06T04:37:25;2.40;;;1.37;;
3916;SDS011;1973;50.518;7.318;2024-01-06T04:39:52;3.40;;;1.77;;
3916;SDS011;1973;50.518;7.318;2024-01-06T04:42:18;2.60;;;1.40;;
3916;SDS011;1973;50.518;7.318;2024-01-06T04:44:46;2.60;;;1.47;;
3916;SDS011;1973;50.518;7.318;2024-01-06T04:47:12;3.07;;;1.20;;
3916;SDS011;1973;50.518;7.318;2024-01-06T04:49:39;5.23;;;1.37;;
3916;SDS011;1973;50.518;7.318;2024-01-06T04:52:05;1.73;;;1.00;;
3916;SDS011;1973;50.518;7.318;2024-01-06T04:54:32;1.40;;;1.20;;
3916;SDS011;1973;50.518;7.318;2024-01-06T04:56:58;1.33;;;1.10;;
3916;SDS011;1973;50.518;7.318;2024-01-06T04:59:25;2.80;;;1.37;;
3916;SDS011;1973;50.518;7.318;2024-01-06T05:01:52;2.50;;;1.30;;
3916;SDS011;1973;50.518;7.318;2024-01-06T05:04:19;1.97;;;1.23;;
3916;SDS011;1973;50.518;7.318;2024-01-06T05:06:46;3.83;;;1.73;;
3916;SDS011;1973;50.518;7.318;2024-01-06T05:09:13;2.93;;;2.20;;
3916;SDS011;1973;50.518;7.318;2024-01-06T05:11:39;1.90;;;1.50;;
3916;SDS011;1973;50.518;7.318;2024-01-06T05:14:06;1.73;;;1.40;;
3916;SDS011;1973;50.518;7.318;2024-01-06T05:16:33;2.53;;;1.40;;
3916;SDS011;1973;50.518;7.318;2024-01-06T05:18:59;1.70;;;1.33;;
3916;SDS011;1973;50.518;7.318;2024-01-06T05:21:26;3.57;;;1.67;;
3916;SDS011;1973;50.518;7.318;2024-01-06T05:23:53;1.60;;;1.40;;
3916;SDS011;1973;50.518;7.318;2024-01-06T05:26:19;3.53;;;1.43;;
3916;SDS011;1973;50.518;7.318;2024-01-06T05:28:46;2.17;;;1.37;;
3916;SDS011;1973;50.518;7.318;2024-01-06T05:31:12;1.80;;;1.30;;
3916;SDS011;1973;50.518;7.318;2024-01-06T05:33:39;2.97;;;1.53;;
3916;SDS011;1973;50.518;7.318;2024-01-06T05:36:06;1.93;;;1.70;;
3916;SDS011;1973;50.518;7.318;2024-01-06T05:38:32;1.77;;;1.47;;
3916;SDS011;1973;50.518;7.318;2024-01-06T05:40:59;1.53;;;1.17;;
3916;SDS011;1973;50.518;7.318;2024-01-06T05:43:25;2.47;;;1.60;;
3916;SDS011;1973;50.518;7.318;2024-01-06T05:45:52;4.33;;;1.63;;
3916;SDS011;1973;50.518;7.318;2024-01-06T05:48:19;1.67;;;1.10;;
3916;SDS011;1973;50.518;7.318;2024-01-06T05:50:45;2.47;;;1.37;;
3916;SDS011;1973;50.518;7.318;2024-01-06T05:53:12;1.40;;;1.07;;
3916;SDS011;1973;50.518;7.318;2024-01-06T05:55:40;1.13;;;0.90;;
3916;SDS011;1973;50.518;7.318;2024-01-06T05:58:07;2.33;;;1.67;;
3916;SDS011;1973;50.518;7.318;2024-01-06T06:00:33;3.40;;;1.90;;
3916;SDS011;1973;50.518;7.318;2024-01-06T06:03:00;3.53;;;1.67;;
3916;SDS011;1973;50.518;7.318;2024-01-06T06:05:26;9.80;;;6.43;;
3916;SDS011;1973;50.518;7.318;2024-01-06T06:07:53;4.47;;;3.47;;
3916;SDS011;1973;50.518;7.318;2024-01-06T06:10:20;3.33;;;2.67;;
3916;SDS011;1973;50.518;7.318;2024-01-06T06:12:48;3.60;;;2.30;;
3916;SDS011;1973;50.518;7.318;2024-01-06T06:15:14;2.13;;;1.90;;
3916;SDS011;1973;50.518;7.318;2024-01-06T06:17:41;3.97;;;1.83;;
3916;SDS011;1973;50.518;7.318;2024-01-06T06:20:07;3.93;;;2.53;;
3916;SDS011;1973;50.518;7.318;2024-01-06T06:22:34;3.27;;;1.97;;
3916;SDS011;1973;50.518;7.318;2024-01-06T06:25:01;4.40;;;2.40;;
3916;SDS011;1973;50.518;7.318;2024-01-06T06:27:27;2.60;;;2.27;;
3916;SDS011;1973;50.518;7.318;2024-01-06T06:29:54;2.97;;;1.90;;
3916;SDS011;1973;50.518;7.318;2024-01-06T06:32:22;3.43;;;2.57;;
3916;SDS011;1973;50.518;7.318;2024-01-06T06:34:49;2.50;;;1.80;;
3916;SDS011;1973;50.518;7.318;2024-01-06T06:37:15;3.47;;;2.20;;
3916;SDS011;1973;50.518;7.318;2024-01-06T06:39:42;3.17;;;2.33;;
3916;SDS011;1973;50.518;7.318;2024-01-06T06:42:11;2.90;;;1.80;;
3916;SDS011;1973;50.518;7.318;2024-01-06T06:44:37;2.77;;;1.80;;
3916;SDS011;1973;50.518;7.318;2024-01-06T06:47:04;3.67;;;2.00;;
3916;SDS011;1973;50.518;7.318;2024-01-06T06:49:30;6.47;;;5.80;;
3916;SDS011;1973;50.518;7.318;2024-01-06T06:51:57;6.57;;;5.70;;
3916;SDS011;1973;50.518;7.318;2024-01-06T06:54:24;6.67;;;5.10;;
3916;SDS011;1973;50.518;7.318;2024-01-06T06:56:50;5.90;;;4.57;;
3916;SDS011;1973;50.518;7.318;2024-01-06T06:59:17;7.30;;;4.97;;
3916;SDS011;1973;50.518;7.318;2024-01-06T07:01:44;4.50;;;4.07;;
3916;SDS011;1973;50.518;7.318;2024-01-06T07:04:10;4.93;;;4.03;;
3916;SDS011;1973;50.518;7.318;2024-01-06T07:06:37;4.00;;;3.43;;
3916;SDS011;1973;50.518;7.318;2024-01-06T07:09:03;3.83;;;3.47;;
3916;SDS011;1973;50.518;7.318;2024-01-06T07:11:31;3.80;;;3.07;;
3916;SDS011;1973;50.518;7.318;2024-01-06T07:13:57;3.63;;;2.90;;
3916;SDS011;1973;50.518;7.318;2024-01-06T07:16:24;3.63;;;2.80;;
3916;SDS011;1973;50.518;7.318;2024-01-06T07:18:51;2.80;;;2.20;;
3916;SDS011;1973;50.518;7.318;2024-01-06T07:21:17;3.23;;;2.70;;
3916;SDS011;1973;50.518;7.318;2024-01-06T07:23:44;3.60;;;2.40;;
3916;SDS011;1973;50.518;7.318;2024-01-06T07:26:10;6.13;;;2.90;;
3916;SDS011;1973;50.518;7.318;2024-01-06T07:28:37;4.10;;;2.77;;
3916;SDS011;1973;50.518;7.318;2024-01-06T07:31:04;3.57;;;2.70;;
3916;SDS011;1973;50.518;7.318;2024-01-06T07:33:32;5.00;;;2.70;;
3916;SDS011;1973;50.518;7.318;2024-01-06T07:35:58;5.90;;;3.90;;
3916;SDS011;1973;50.518;7.318;2024-01-06T07:38:25;4.10;;;3.57;;
3916;SDS011;1973;50.518;7.318;2024-01-06T07:40:51;4.63;;;3.90;;
3916;SDS011;1973;50.518;7.318;2024-01-06T07:43:19;3.57;;;3.27;;
3916;SDS011;1973;50.518;7.318;2024-01-06T07:45:46;8.57;;;3.33;;
3916;SDS011;1973;50.518;7.318;2024-01-06T07:48:12;6.17;;;4.30;;
3916;SDS011;1973;50.518;7.318;2024-01-06T07:50:39;6.73;;;4.73;;
3916;SDS011;1973;50.518;7.318;2024-01-06T07:53:06;8.73;;;6.00;;
3916;SDS011;1973;50.518;7.318;2024-01-06T07:55:32;8.80;;;6.63;;
3916;SDS011;1973;50.518;7.318;2024-01-06T07:57:59;7.80;;;5.00;;
3916;SDS011;1973;50.518;7.318;2024-01-06T08:00:25;9.87;;;5.63;;
3916;SDS011;1973;50.518;7.318;2024-01-06T08:02:52;8.13;;;5.00;;
3916;SDS011;1973;50.518;7.318;2024-01-06T08:05:18;9.47;;;6.03;;
3916;SDS011;1973;50.518;7.318;2024-01-06T08:07:45;13.53;;;9.27;;
3916;SDS011;1973;50.518;7.318;2024-01-06T08:10:12;20.13;;;11.43;;
3916;SDS011;1973;50.518;7.318;2024-01-06T08:12:38;19.30;;;12.03;;
3916;SDS011;1973;50.518;7.318;2024-01-06T08:15:05;16.30;;;11.47;;
3916;SDS011;1973;50.518;7.318;2024-01-06T08:17:33;17.40;;;11.23;;
3916;SDS011;1973;50.518;7.318;2024-01-06T08:20:00;19.60;;;12.87;;
3916;SDS011;1973;50.518;7.318;2024-01-06T08:22:27;20.10;;;12.23;;
3916;SDS011;1973;50.518;7.318;2024-01-06T08:24:53;20.97;;;12.80;;
3916;SDS011;1973;50.518;7.318;2024-01-06T08:27:20;18.97;;;12.50;;
3916;SDS011;1973;50.518;7.318;2024-01-06T08:29:48;21.13;;;12.53;;
3916;SDS011;1973;50.518;7.318;2024-01-06T08:32:14;17.23;;;12.37;;
3916;SDS011;1973;50.518;7.318;2024-01-06T08:34:41;19.73;;;12.77;;
3916;SDS011;1973;50.518;7.318;2024-01-06T08:37:08;21.10;;;13.27;;
3916;SDS011;1973;50.518;7.318;2024-01-06T08:39:34;19.10;;;12.33;;
3916;SDS011;1973;50.518;7.318;2024-01-06T08:42:01;22.53;;;13.63;;
3916;SDS011;1973;50.518;7.318;2024-01-06T08:44:28;25.40;;;14.10;;
3916;SDS011;1973;50.518;7.318;2024-01-06T08:46:54;23.70;;;14.67;;
3916;SDS011;1973;50.518;7.318;2024-01-06T08:49:21;23.30;;;15.20;;
3916;SDS011;1973;50.518;7.318;2024-01-06T08:51:48;23.47;;;14.40;;
3916;SDS011;1973;50.518;7.318;2024-01-06T08:54:15;21.87;;;14.80;;
3916;SDS011;1973;50.518;7.318;2024-01-06T08:56:42;22.40;;;14.80;;
3916;SDS011;1973;50.518;7.318;2024-01-06T08:59:08;21.90;;;14.70;;
3916;SDS011;1973;50.518;7.318;2024-01-06T09:01:35;22.70;;;15.30;;
3916;SDS011;1973;50.518;7.318;2024-01-06T09:04:03;23.73;;;15.17;;
3916;SDS011;1973;50.518;7.318;2024-01-06T09:06:30;21.87;;;15.00;;
3916;SDS011;1973;50.518;7.318;2024-01-06T09:08:57;22.53;;;15.10;;
3916;SDS011;1973;50.518;7.318;2024-01-06T09:11:24;25.60;;;16.27;;
3916;SDS011;1973;50.518;7.318;2024-01-06T09:13:50;22.73;;;15.97;;
3916;SDS011;1973;50.518;7.318;2024-01-06T09:16:19;22.10;;;14.30;;
3916;SDS011;1973;50.518;7.318;2024-01-06T09:18:45;20.20;;;13.40;;
3916;SDS011;1973;50.518;7.318;2024-01-06T09:21:12;25.13;;;16.00;;
3916;SDS011;1973;50.518;7.318;2024-01-06T09:23:39;23.50;;;14.03;;
3916;SDS011;1973;50.518;7.318;2024-01-06T09:26:06;23.17;;;13.90;;
3916;SDS011;1973;50.518;7.318;2024-01-06T09:28:33;21.20;;;13.37;;
3916;SDS011;1973;50.518;7.318;2024-01-06T09:30:59;23.03;;;13.93;;
3916;SDS011;1973;50.518;7.318;2024-01-06T09:33:26;26.40;;;14.33;;
3916;SDS011;1973;50.518;7.318;2024-01-06T09:35:53;20.17;;;13.10;;
3916;SDS011;1973;50.518;7.318;2024-01-06T09:38:19;16.67;;;11.60;;
3916;SDS011;1973;50.518;7.318;2024-01-06T09:40:46;20.40;;;12.60;;
3916;SDS011;1973;50.518;7.318;2024-01-06T09:43:15;20.20;;;13.57;;
3916;SDS011;1973;50.518;7.318;2024-01-06T09:45:41;17.83;;;12.17;;
3916;SDS011;1973;50.518;7.318;2024-01-06T09:48:12;19.10;;;11.87;;
3916;SDS011;1973;50.518;7.318;2024-01-06T09:50:40;19.03;;;11.70;;
3916;SDS011;1973;50.518;7.318;2024-01-06T09:53:10;20.53;;;12.53;;
3916;SDS011;1973;50.518;7.318;2024-01-06T09:55:38;19.00;;;12.00;;
3916;SDS011;1973;50.518;7.318;2024-01-06T09:58:05;22.17;;;12.00;;
3916;SDS011;1973;50.518;7.318;2024-01-06T10:00:36;21.07;;;12.13;;
3916;SDS011;1973;50.518;7.318;2024-01-06T10:03:03;19.37;;;12.33;;
3916;SDS011;1973;50.518;7.318;2024-01-06T10:05:30;20.30;;;12.60;;
3916;SDS011;1973;50.518;7.318;2024-01-06T10:07:57;20.50;;;12.17;;
3916;SDS011;1973;50.518;7.318;2024-01-06T10:10:23;20.53;;;11.80;;
3916;SDS011;1973;50.518;7.318;2024-01-06T10:12:52;23.20;;;11.90;;
3916;SDS011;1973;50.518;7.318;2024-01-06T10:15:19;19.40;;;13.00;;
3916;SDS011;1973;50.518;7.318;2024-01-06T10:17:46;19.30;;;11.07;;
3916;SDS011;1973;50.518;7.318;2024-01-06T10:20:13;20.10;;;11.87;;
3916;SDS011;1973;50.518;7.318;2024-01-06T10:22:41;20.87;;;12.30;;
3916;SDS011;1973;50.518;7.318;2024-01-06T10:25:09;24.77;;;13.37;;
3916;SDS011;1973;50.518;7.318;2024-01-06T10:27:37;16.17;;;11.20;;
3916;SDS011;1973;50.518;7.318;2024-01-06T10:30:08;18.90;;;11.70;;
3916;SDS011;1973;50.518;7.318;2024-01-06T10:58:27;15.73;;;10.27;;
3916;SDS011;1973;50.518;7.318;2024-01-06T11:00:56;15.50;;;9.93;;
3916;SDS011;1973;50.518;7.318;2024-01-06T11:03:23;15.47;;;10.47;;
3916;SDS011;1973;50.518;7.318;2024-01-06T11:05:51;15.53;;;10.07;;
3916;SDS011;1973;50.518;7.318;2024-01-06T11:08:18;14.27;;;9.97;;
3916;SDS011;1973;50.518;7.318;2024-01-06T11:10:45;14.33;;;8.40;;
3916;SDS011;1973;50.518;7.318;2024-01-06T11:13:13;14.87;;;9.10;;
3916;SDS011;1973;50.518;7.318;2024-01-06T11:15:48;15.80;;;9.80;;
3916;SDS011;1973;50.518;7.318;2024-01-06T11:18:34;13.60;;;8.13;;
3916;SDS011;1973;50.518;7.318;2024-01-06T11:21:21;15.07;;;9.80;;
3916;SDS011;1973;50.518;7.318;2024-01-06T11:26:56;12.73;;;8.03;;
3916;SDS011;1973;50.518;7.318;2024-01-06T11:29:23;14.47;;;8.73;;
3916;SDS011;1973;50.518;7.318;2024-01-06T11:32:16;10.57;;;6.40;;
3916;SDS011;1973;50.518;7.318;2024-01-06T11:34:49;10.03;;;6.43;;
3916;SDS011;1973;50.518;7.318;2024-01-06T11:37:23;8.93;;;5.80;;
3916;SDS011;1973;50.518;7.318;2024-01-06T11:40:52;13.10;;;6.60;;
3916;SDS011;1973;50.518;7.318;2024-01-06T11:45:27;10.87;;;6.30;;
3916;SDS011;1973;50.518;7.318;2024-01-06T11:47:56;10.53;;;7.20;;
3916;SDS011;1973;50.518;7.318;2024-01-06T11:50:28;9.30;;;6.40;;
3916;SDS011;1973;50.518;7.318;2024-01-06T11:52:55;9.73;;;5.63;;
3916;SDS011;1973;50.518;7.318;2024-01-06T11:55:22;8.73;;;5.47;;
3916;SDS011;1973;50.518;7.318;2024-01-06T11:57:49;9.67;;;6.23;;
3916;SDS011;1973;50.518;7.318;2024-01-06T12:00:16;6.80;;;4.83;;
3916;SDS011;1973;50.518;7.318;2024-01-06T12:02:44;7.83;;;5.27;;
3916;SDS011;1973;50.518;7.318;2024-01-06T12:05:15;7.93;;;5.30;;
3916;SDS011;1973;50.518;7.318;2024-01-06T12:07:57;8.07;;;5.50;;
3916;SDS011;1973;50.518;7.318;2024-01-06T12:10:28;6.20;;;4.60;;
3916;SDS011;1973;50.518;7.318;2024-01-06T12:12:59;6.60;;;5.27;;
3916;SDS011;1973;50.518;7.318;2024-01-06T12:15:26;6.63;;;5.27;;
3916;SDS011;1973;50.518;7.318;2024-01-06T12:17:54;8.07;;;4.93;;
3916;SDS011;1973;50.518;7.318;2024-01-06T12:20:24;7.50;;;5.47;;
3916;SDS011;1973;50.518;7.318;2024-01-06T12:22:52;8.77;;;5.60;;
3916;SDS011;1973;50.518;7.318;2024-01-06T12:25:22;7.90;;;6.23;;
3916;SDS011;1973;50.518;7.318;2024-01-06T12:27:50;7.80;;;5.80;;
3916;SDS011;1973;50.518;7.318;2024-01-06T12:30:19;10.70;;;6.70;;
3916;SDS011;1973;50.518;7.318;2024-01-06T12:32:47;9.37;;;6.33;;
3916;SDS011;1973;50.518;7.318;2024-01-06T12:35:16;8.17;;;5.80;;
3916;SDS011;1973;50.518;7.318;2024-01-06T12:37:43;10.77;;;7.17;;
3916;SDS011;1973;50.518;7.318;2024-01-06T12:40:11;9.43;;;6.30;;
3916;SDS011;1973;50.518;7.318;2024-01-06T12:42:39;10.40;;;7.17;;
3916;SDS011;1973;50.518;7.318;2024-01-06T12:45:06;10.20;;;7.20;;
3916;SDS011;1973;50.518;7.318;2024-01-06T12:47:33;12.40;;;8.00;;
3916;SDS011;1973;50.518;7.318;2024-01-06T12:50:00;11.13;;;7.27;;
3916;SDS011;1973;50.518;7.318;2024-01-06T12:52:27;11.33;;;8.00;;
3916;SDS011;1973;50.518;7.318;2024-01-06T12:54:53;12.97;;;8.40;;
3916;SDS011;1973;50.518;7.318;2024-01-06T12:57:20;11.57;;;8.27;;
3916;SDS011;1973;50.518;7.318;2024-01-06T12:59:47;11.33;;;8.27;;
3916;SDS011;1973;50.518;7.318;2024-01-06T13:02:13;13.43;;;9.20;;
3916;SDS011;1973;50.518;7.318;2024-01-06T13:04:40;15.27;;;8.87;;
3916;SDS011;1973;50.518;7.318;2024-01-06T13:07:06;13.10;;;8.43;;
3916;SDS011;1973;50.518;7.318;2024-01-06T13:09:33;11.53;;;8.03;;
3916;SDS011;1973;50.518;7.318;2024-01-06T13:12:00;13.20;;;8.43;;
3916;SDS011;1973;50.518;7.318;2024-01-06T13:14:27;14.83;;;8.87;;
3916;SDS011;1973;50.518;7.318;2024-01-06T13:16:55;13.33;;;8.33;;
3916;SDS011;1973;50.518;7.318;2024-01-06T13:19:21;14.73;;;9.20;;
3916;SDS011;1973;50.518;7.318;2024-01-06T13:21:48;13.07;;;8.03;;
3916;SDS011;1973;50.518;7.318;2024-01-06T13:24:15;12.50;;;8.67;;
3916;SDS011;1973;50.518;7.318;2024-01-06T13:26:41;15.00;;;9.20;;
3916;SDS011;1973;50.518;7.318;2024-01-06T13:29:08;15.50;;;9.20;;
3916;SDS011;1973;50.518;7.318;2024-01-06T13:31:34;12.87;;;8.20;;
3916;SDS011;1973;50.518;7.318;2024-01-06T13:34:01;14.80;;;9.10;;
3916;SDS011;1973;50.518;7.318;2024-01-06T13:36:28;17.30;;;10.93;;
3916;SDS011;1973;50.518;7.318;2024-01-06T13:38:54;15.63;;;10.10;;
3916;SDS011;1973;50.518;7.318;2024-01-06T13:41:21;17.50;;;9.70;;
3916;SDS011;1973;50.518;7.318;2024-01-06T13:43:48;15.53;;;9.77;;
3916;SDS011;1973;50.518;7.318;2024-01-06T13:46:15;17.57;;;10.60;;
3916;SDS011;1973;50.518;7.318;2024-01-06T13:48:41;13.40;;;8.90;;
3916;SDS011;1973;50.518;7.318;2024-01-06T13:51:08;15.30;;;10.20;;
3916;SDS011;1973;50.518;7.318;2024-01-06T13:53:35;13.03;;;8.80;;
3916;SDS011;1973;50.518;7.318;2024-01-06T13:56:02;15.90;;;9.63;;
3916;SDS011;1973;50.518;7.318;2024-01-06T13:58:29;15.20;;;9.63;;
3916;SDS011;1973;50.518;7.318;2024-01-06T14:00:55;17.50;;;9.80;;
3916;SDS011;1973;50.518;7.318;2024-01-06T14:03:22;13.93;;;9.03;;
3916;SDS011;1973;50.518;7.318;2024-01-06T14:05:49;14.00;;;8.57;;
3916;SDS011;1973;50.518;7.318;2024-01-06T14:08:17;14.53;;;9.93;;
3916;SDS011;1973;50.518;7.318;2024-01-06T14:10:44;19.20;;;9.57;;
3916;SDS011;1973;50.518;7.318;2024-01-06T14:13:11;13.57;;;8.37;;
3916;SDS011;1973;50.518;7.318;2024-01-06T14:15:37;14.97;;;9.07;;
3916;SDS011;1973;50.518;7.318;2024-01-06T14:18:04;15.17;;;9.63;;
3916;SDS011;1973;50.518;7.318;2024-01-06T14:20:31;16.13;;;10.97;;
3916;SDS011;1973;50.518;7.318;2024-01-06T14:22:58;15.63;;;9.63;;
3916;SDS011;1973;50.518;7.318;2024-01-06T14:25:25;15.03;;;9.40;;
3916;SDS011;1973;50.518;7.318;2024-01-06T14:27:51;18.43;;;10.60;;
3916;SDS011;1973;50.518;7.318;2024-01-06T14:30:19;16.67;;;9.80;;
3916;SDS011;1973;50.518;7.318;2024-01-06T14:32:46;18.80;;;11.00;;
3916;SDS011;1973;50.518;7.318;2024-01-06T14:35:13;17.70;;;10.53;;
3916;SDS011;1973;50.518;7.318;2024-01-06T14:37:40;16.40;;;9.97;;
3916;SDS011;1973;50.518;7.318;2024-01-06T14:40:07;18.67;;;10.83;;
3916;SDS011;1973;50.518;7.318;2024-01-06T14:42:35;14.27;;;8.93;;
3916;SDS011;1973;50.518;7.318;2024-01-06T14:45:03;17.03;;;10.23;;
3916;SDS011;1973;50.518;7.318;2024-01-06T14:47:30;19.80;;;12.40;;
3916;SDS011;1973;50.518;7.318;2024-01-06T14:49:56;26.10;;;15.07;;
3916;SDS011;1973;50.518;7.318;2024-01-06T14:52:23;19.07;;;11.80;;
3916;SDS011;1973;50.518;7.318;2024-01-06T14:54:50;20.97;;;12.00;;
3916;SDS011;1973;50.518;7.318;2024-01-06T14:57:16;19.13;;;11.27;;
3916;SDS011;1973;50.518;7.318;2024-01-06T14:59:43;17.27;;;10.47;;
3916;SDS011;1973;50.518;7.318;2024-01-06T15:02:09;18.63;;;10.80;;
3916;SDS011;1973;50.518;7.318;2024-01-06T15:04:39;15.40;;;9.60;;
3916;SDS011;1973;50.518;7.318;2024-01-06T15:07:06;15.20;;;10.10;;
3916;SDS011;1973;50.518;7.318;2024-01-06T15:09:32;15.10;;;8.87;;
3916;SDS011;1973;50.518;7.318;2024-01-06T15:11:59;15.10;;;8.73;;
3916;SDS011;1973;50.518;7.318;2024-01-06T15:14:25;14.57;;;8.63;;
3916;SDS011;1973;50.518;7.318;2024-01-06T15:16:52;11.70;;;7.73;;
3916;SDS011;1973;50.518;7.318;2024-01-06T15:19:18;11.83;;;7.70;;
3916;SDS011;1973;50.518;7.318;2024-01-06T15:21:46;12.00;;;7.53;;
3916;SDS011;1973;50.518;7.318;2024-01-06T15:24:14;12.60;;;7.67;;
3916;SDS011;1973;50.518;7.318;2024-01-06T15:26:42;13.00;;;8.40;;
3916;SDS011;1973;50.518;7.318;2024-01-06T15:29:09;11.10;;;6.57;;
3916;SDS011;1973;50.518;7.318;2024-01-06T15:31:35;12.17;;;7.07;;
3916;SDS011;1973;50.518;7.318;2024-01-06T15:34:03;10.17;;;6.53;;
3916;SDS011;1973;50.518;7.318;2024-01-06T15:36:30;11.10;;;6.87;;
3916;SDS011;1973;50.518;7.318;2024-01-06T15:38:56;12.43;;;6.70;;